createdAt,value
2018-06-29T00:01:48.284Z,1.20
2018-06-29T00:04:15.815Z,0.80
2018-06-29T00:06:43.320Z,0.83
2018-06-29T00:09:10.843Z,0.80
2018-06-29T00:11:38.394Z,0.93
2018-06-29T00:14:05.902Z,1.00
2018-06-29T00:16:33.478Z,1.47
2018-06-29T00:19:00.996Z,0.63
2018-06-29T00:21:28.496Z,1.00
2018-06-29T00:23:55.999Z,0.90
2018-06-29T00:26:23.512Z,1.00
2018-06-29T00:28:51.011Z,1.00
2018-06-29T00:31:18.527Z,0.70
2018-06-29T00:33:46.015Z,0.60
2018-06-29T00:36:13.527Z,0.60
2018-06-29T00:38:41.051Z,0.90
2018-06-29T00:41:08.552Z,0.60
2018-06-29T00:43:36.055Z,0.97
2018-06-29T00:46:03.605Z,0.70
2018-06-29T00:48:31.096Z,0.60
2018-06-29T00:50:58.627Z,0.63
2018-06-29T00:53:26.151Z,0.60
2018-06-29T00:55:53.699Z,0.50
2018-06-29T00:58:21.195Z,0.80
2018-06-29T01:00:48.711Z,0.50
2018-06-29T01:03:16.263Z,0.87
2018-06-29T01:05:43.789Z,0.70
2018-06-29T01:08:11.384Z,0.50
2018-06-29T01:10:38.922Z,0.90
2018-06-29T01:13:06.435Z,0.60
2018-06-29T01:15:33.975Z,0.50
2018-06-29T01:18:01.475Z,0.63
2018-06-29T01:20:29.051Z,0.60
2018-06-29T01:22:56.579Z,0.83
2018-06-29T01:25:24.060Z,0.60
2018-06-29T01:27:51.609Z,0.50
2018-06-29T01:30:19.139Z,0.73
2018-06-29T01:32:46.637Z,0.60
2018-06-29T01:35:14.163Z,0.50
2018-06-29T01:37:41.730Z,0.60
2018-06-29T01:40:09.247Z,0.50
2018-06-29T01:42:36.723Z,0.60
2018-06-29T01:45:04.866Z,0.40
2018-06-29T01:47:32.352Z,0.37
2018-06-29T01:49:59.838Z,0.40
2018-06-29T01:52:27.380Z,0.60
2018-06-29T01:54:54.870Z,0.30
2018-06-29T01:57:22.342Z,0.40
2018-06-29T01:59:49.902Z,0.30
2018-06-29T02:02:17.455Z,0.60
2018-06-29T02:04:44.943Z,0.30
2018-06-29T02:07:12.475Z,0.53
2018-06-29T02:09:40.000Z,0.20
2018-06-29T02:12:08.799Z,0.60
2018-06-29T02:14:36.310Z,0.30
2018-06-29T02:17:03.864Z,0.30
2018-06-29T02:19:31.356Z,0.50
2018-06-29T02:21:58.859Z,0.20
2018-06-29T02:24:26.357Z,0.40
2018-06-29T02:26:53.862Z,0.40
2018-06-29T02:29:21.371Z,0.40
2018-06-29T02:31:48.936Z,0.30
2018-06-29T02:34:16.440Z,0.30
2018-06-29T02:36:43.931Z,0.60
2018-06-29T02:39:13.105Z,0.20
2018-06-29T02:41:41.048Z,0.50
2018-06-29T02:44:08.556Z,0.43
2018-06-29T02:46:36.147Z,0.43
2018-06-29T02:49:03.732Z,0.40
2018-06-29T02:51:31.231Z,0.47
2018-06-29T02:53:58.853Z,0.40
2018-06-29T02:56:26.370Z,0.40
2018-06-29T02:58:53.875Z,0.40
2018-06-29T03:01:21.595Z,0.43
2018-06-29T03:03:49.101Z,0.40
2018-06-29T03:06:16.589Z,0.40
2018-06-29T03:08:44.102Z,0.40
2018-06-29T03:11:11.597Z,0.30
2018-06-29T03:13:39.111Z,0.40
2018-06-29T03:16:06.616Z,0.30
2018-06-29T03:18:34.537Z,0.30
2018-06-29T03:21:02.036Z,0.33
2018-06-29T03:23:29.539Z,0.20
2018-06-29T03:25:57.052Z,0.50
2018-06-29T03:28:24.623Z,0.30
2018-06-29T03:30:52.133Z,0.20
2018-06-29T03:33:19.630Z,0.30
2018-06-29T03:35:47.167Z,0.10
2018-06-29T03:38:14.667Z,0.20
2018-06-29T03:40:42.284Z,0.10
2018-06-29T03:43:09.759Z,0.20
2018-06-29T03:45:37.274Z,0.20
2018-06-29T03:48:04.751Z,0.30
2018-06-29T03:50:32.291Z,0.13
2018-06-29T03:52:59.795Z,0.20
2018-06-29T03:55:27.335Z,0.20
2018-06-29T03:57:54.843Z,0.20
2018-06-29T04:00:22.367Z,0.10
2018-06-29T04:02:50.015Z,0.30
2018-06-29T04:05:17.539Z,0.20
2018-06-29T04:07:45.052Z,0.20
2018-06-29T04:10:12.577Z,0.13
2018-06-29T04:12:40.085Z,0.10
2018-06-29T04:15:08.050Z,0.20
2018-06-29T04:17:35.594Z,0.13
2018-06-29T04:20:03.158Z,0.30
2018-06-29T04:22:30.647Z,0.20
2018-06-29T04:25:00.744Z,0.30
2018-06-29T04:27:28.318Z,0.20
2018-06-29T04:29:55.802Z,0.20
2018-06-29T04:32:23.398Z,0.17
2018-06-29T04:34:50.905Z,0.43
2018-06-29T04:37:18.415Z,0.00
2018-06-29T04:39:45.935Z,0.20
2018-06-29T04:42:13.475Z,0.10
2018-06-29T04:44:41.035Z,0.13
2018-06-29T04:47:08.634Z,0.10
2018-06-29T04:49:36.156Z,0.20
2018-06-29T04:52:03.695Z,0.30
2018-06-29T04:54:31.208Z,0.10
2018-06-29T04:56:58.815Z,0.30
2018-06-29T04:59:26.336Z,0.10
2018-06-29T05:01:53.849Z,0.30
2018-06-29T05:04:21.358Z,0.10
2018-06-29T05:06:48.882Z,0.10
2018-06-29T05:09:16.575Z,0.20
2018-06-29T05:11:44.087Z,0.37
2018-06-29T05:14:11.595Z,0.40
2018-06-29T05:16:39.143Z,0.10
2018-06-29T05:19:06.643Z,0.17
2018-06-29T05:21:34.134Z,0.10
2018-06-29T05:24:01.663Z,0.10
2018-06-29T05:26:29.192Z,0.20
2018-06-29T05:28:56.706Z,0.20
2018-06-29T05:31:24.216Z,0.10
2018-06-29T05:33:51.850Z,0.20
2018-06-29T05:36:19.351Z,0.20
2018-06-29T05:38:46.860Z,0.10
2018-06-29T05:41:14.442Z,0.40
2018-06-29T05:43:41.953Z,0.10
2018-06-29T05:46:09.507Z,0.10
2018-06-29T05:48:37.034Z,0.30
2018-06-29T05:51:04.534Z,0.10
2018-06-29T05:53:32.061Z,0.23
2018-06-29T05:55:59.571Z,0.20
2018-06-29T05:58:27.112Z,0.10
2018-06-29T06:00:54.686Z,0.10
2018-06-29T06:03:22.239Z,0.20
2018-06-29T06:05:49.755Z,0.10
2018-06-29T06:08:17.259Z,0.17
2018-06-29T06:10:44.818Z,0.20
2018-06-29T06:13:12.330Z,0.20
2018-06-29T06:15:39.823Z,0.20
2018-06-29T06:18:07.488Z,0.20
2018-06-29T06:20:35.003Z,0.20
2018-06-29T06:23:15.653Z,0.27
2018-06-29T06:25:43.177Z,0.10
2018-06-29T06:28:10.719Z,0.20
2018-06-29T06:30:38.269Z,0.30
2018-06-29T06:33:05.809Z,0.20
2018-06-29T06:35:33.352Z,0.20
2018-06-29T06:38:00.923Z,0.30
2018-06-29T06:40:28.460Z,0.27
2018-06-29T06:42:55.963Z,0.20
2018-06-29T06:45:23.507Z,0.20
2018-06-29T06:47:51.005Z,0.30
2018-06-29T06:50:18.562Z,0.20
2018-06-29T06:52:46.110Z,0.13
2018-06-29T06:55:13.604Z,0.33
2018-06-29T06:57:41.111Z,0.30
2018-06-29T07:00:08.634Z,0.40
2018-06-29T07:02:36.159Z,0.20
2018-06-29T07:05:03.747Z,0.30
2018-06-29T07:07:31.260Z,0.20
2018-06-29T07:09:58.774Z,0.30
2018-06-29T07:12:26.323Z,0.40
2018-06-29T07:14:53.863Z,0.30
2018-06-29T07:17:21.376Z,0.10
2018-06-29T07:19:48.897Z,0.20
2018-06-29T07:22:16.421Z,0.20
2018-06-29T07:24:43.982Z,0.30
2018-06-29T07:27:11.482Z,0.23
2018-06-29T07:29:38.979Z,0.20
2018-06-29T07:32:06.494Z,0.20
2018-06-29T07:34:34.038Z,0.40
2018-06-29T07:37:01.551Z,0.20
2018-06-29T07:39:29.100Z,0.20
2018-06-29T07:41:56.594Z,0.20
2018-06-29T07:44:24.080Z,0.20
2018-06-29T07:46:51.607Z,0.57
2018-06-29T07:49:19.092Z,0.23
2018-06-29T07:51:46.743Z,0.17
2018-06-29T07:54:14.247Z,0.20
2018-06-29T07:56:41.784Z,0.30
2018-06-29T07:59:09.347Z,0.40
2018-06-29T08:01:36.852Z,0.40
2018-06-29T08:04:04.507Z,0.40
2018-06-29T08:06:32.004Z,0.20
2018-06-29T08:08:59.542Z,0.30
2018-06-29T08:11:27.050Z,0.50
2018-06-29T08:13:54.548Z,0.20
2018-06-29T08:16:22.071Z,0.20
2018-06-29T08:18:49.603Z,0.20
2018-06-29T08:21:17.084Z,0.33
2018-06-29T08:23:44.571Z,0.40
2018-06-29T08:26:22.345Z,0.30
2018-06-29T08:28:49.835Z,0.20
2018-06-29T08:31:17.307Z,0.30
2018-06-29T08:33:44.853Z,0.40
2018-06-29T08:36:12.372Z,0.40
2018-06-29T08:38:39.908Z,0.33
2018-06-29T08:41:07.447Z,0.20
2018-06-29T08:43:34.967Z,0.27
2018-06-29T08:46:02.501Z,0.30
2018-06-29T08:48:30.088Z,0.23
2018-06-29T08:50:57.837Z,0.30
2018-06-29T08:53:25.351Z,0.40
2018-06-29T08:55:52.843Z,0.20
2018-06-29T08:58:20.446Z,0.73
2018-06-29T09:00:47.994Z,0.30
2018-06-29T09:03:15.535Z,0.27
2018-06-29T09:05:43.122Z,0.10
2018-06-29T09:08:10.611Z,0.20
2018-06-29T09:10:38.159Z,0.20
2018-06-29T09:13:06.019Z,0.20
2018-06-29T09:15:33.678Z,0.20
2018-06-29T09:18:01.183Z,0.23
2018-06-29T09:20:28.705Z,0.30
2018-06-29T09:22:56.244Z,0.20
2018-06-29T09:25:23.771Z,0.20
2018-06-29T09:27:51.282Z,0.20
2018-06-29T09:30:18.815Z,0.10
2018-06-29T09:32:46.378Z,0.40
2018-06-29T09:35:13.927Z,0.23
2018-06-29T09:37:41.425Z,0.20
2018-06-29T09:40:08.972Z,0.30
2018-06-29T09:42:36.542Z,0.37
2018-06-29T09:45:04.330Z,0.10
2018-06-29T09:47:31.875Z,0.20
2018-06-29T09:49:59.435Z,0.10
2018-06-29T09:52:26.959Z,0.33
2018-06-29T09:54:54.518Z,0.10
2018-06-29T09:57:22.150Z,0.30
2018-06-29T09:59:49.696Z,0.20
2018-06-29T10:02:17.248Z,0.20
2018-06-29T10:04:44.889Z,0.20
2018-06-29T10:07:12.415Z,0.20
2018-06-29T10:09:39.992Z,0.13
2018-06-29T10:12:07.491Z,0.33
2018-06-29T10:14:35.055Z,0.10
2018-06-29T10:17:02.594Z,0.20
2018-06-29T10:19:30.299Z,0.20
2018-06-29T10:21:57.836Z,0.20
2018-06-29T10:24:25.409Z,0.23
2018-06-29T10:26:52.934Z,0.50
2018-06-29T10:29:20.471Z,0.27
2018-06-29T10:31:47.976Z,0.40
2018-06-29T10:34:15.579Z,0.30
2018-06-29T10:36:43.172Z,0.17
2018-06-29T10:39:13.635Z,0.40
2018-06-29T10:41:41.555Z,0.10
2018-06-29T10:44:09.103Z,0.57
2018-06-29T10:46:37.037Z,0.40
2018-06-29T10:49:04.939Z,0.20
2018-06-29T10:51:32.439Z,0.40
2018-06-29T10:53:59.974Z,0.30
2018-06-29T10:56:27.481Z,0.30
2018-06-29T10:58:55.148Z,0.30
2018-06-29T11:01:22.667Z,0.30
2018-06-29T11:03:50.225Z,0.30
2018-06-29T11:06:17.887Z,0.43
2018-06-29T11:08:45.391Z,0.30
2018-06-29T11:11:12.900Z,0.10
2018-06-29T11:13:40.434Z,0.20
2018-06-29T11:16:07.919Z,0.40
2018-06-29T11:18:35.428Z,0.40
2018-06-29T11:21:02.941Z,0.30
2018-06-29T11:23:30.457Z,0.33
2018-06-29T11:25:58.027Z,0.50
2018-06-29T11:28:25.640Z,0.27
2018-06-29T11:30:53.183Z,0.30
2018-06-29T11:33:20.695Z,0.30
2018-06-29T11:35:48.194Z,0.30
2018-06-29T11:38:15.763Z,0.30
2018-06-29T11:40:43.319Z,0.20
2018-06-29T11:43:10.975Z,0.50
2018-06-29T11:45:38.517Z,0.13
2018-06-29T11:48:06.027Z,0.10
2018-06-29T11:50:33.573Z,0.20
2018-06-29T11:53:01.109Z,0.20
2018-06-29T11:55:28.637Z,0.20
2018-06-29T11:57:56.152Z,0.40
2018-06-29T12:00:23.681Z,0.20
2018-06-29T12:02:51.402Z,0.40
2018-06-29T12:05:18.994Z,0.30
2018-06-29T12:07:46.513Z,0.23
2018-06-29T12:10:14.035Z,0.13
2018-06-29T12:12:41.540Z,0.30
2018-06-29T12:15:09.072Z,0.40
2018-06-29T12:17:36.592Z,0.20
2018-06-29T12:20:04.145Z,0.20
2018-06-29T12:22:31.679Z,0.40
2018-06-29T12:24:59.207Z,0.33
2018-06-29T12:27:26.763Z,0.47
2018-06-29T12:29:54.295Z,0.30
2018-06-29T12:32:22.000Z,0.30
2018-06-29T12:34:49.495Z,0.30
2018-06-29T12:37:17.113Z,0.13
2018-06-29T12:39:44.632Z,0.30
2018-06-29T12:42:12.368Z,0.33
2018-06-29T12:44:39.868Z,0.10
2018-06-29T12:47:07.494Z,0.23
2018-06-29T12:49:35.024Z,0.20
2018-06-29T12:52:02.578Z,0.20
2018-06-29T12:54:30.111Z,0.40
2018-06-29T12:56:57.606Z,0.30
2018-06-29T12:59:25.111Z,0.50
2018-06-29T13:01:52.683Z,0.20
2018-06-29T13:04:20.218Z,0.20
2018-06-29T13:06:47.815Z,0.13
2018-06-29T13:09:15.343Z,0.50
2018-06-29T13:11:42.870Z,0.30
2018-06-29T13:14:10.389Z,0.20
2018-06-29T13:16:37.932Z,0.20
2018-06-29T13:19:05.512Z,0.30
2018-06-29T13:21:33.015Z,0.10
2018-06-29T13:24:00.542Z,0.30
2018-06-29T13:26:28.037Z,0.20
2018-06-29T13:28:55.524Z,0.37
2018-06-29T13:31:23.079Z,0.20
2018-06-29T13:33:50.582Z,0.30
2018-06-29T13:36:18.837Z,0.20
2018-06-29T13:38:46.400Z,0.30
2018-06-29T13:41:13.885Z,0.20
2018-06-29T13:43:41.379Z,0.30
2018-06-29T13:46:08.951Z,0.10
2018-06-29T13:48:36.427Z,0.20
2018-06-29T13:51:03.971Z,0.20
2018-06-29T13:53:31.482Z,0.20
2018-06-29T13:55:59.075Z,0.13
2018-06-29T13:58:26.595Z,0.30
2018-06-29T14:00:54.098Z,0.27
2018-06-29T14:03:21.630Z,0.30
2018-06-29T14:05:49.129Z,0.30
2018-06-29T14:08:16.758Z,0.20
2018-06-29T14:10:44.323Z,0.30
2018-06-29T14:13:11.838Z,0.20
2018-06-29T14:15:39.326Z,0.10
2018-06-29T14:18:06.937Z,0.30
2018-06-29T14:20:34.398Z,0.20
2018-06-29T14:23:01.888Z,0.20
2018-06-29T14:25:29.479Z,0.40
2018-06-29T14:27:57.014Z,0.20
2018-06-29T14:30:24.507Z,0.10
2018-06-29T14:32:52.328Z,0.30
2018-06-29T14:35:19.839Z,0.50
2018-06-29T14:37:47.331Z,0.10
2018-06-29T14:40:14.982Z,0.00
2018-06-29T14:42:42.481Z,0.10
2018-06-29T14:45:09.973Z,0.03
2018-06-29T14:47:37.518Z,0.10
2018-06-29T14:50:05.103Z,0.10
2018-06-29T14:52:32.615Z,0.10
2018-06-29T14:55:00.127Z,0.10
2018-06-29T14:57:27.655Z,0.03
2018-06-29T14:59:55.179Z,0.10
2018-06-29T15:02:22.679Z,0.10
2018-06-29T15:04:50.232Z,0.10
2018-06-29T15:07:17.742Z,0.00
2018-06-29T15:09:45.264Z,0.10
2018-06-29T15:12:12.806Z,0.10
2018-06-29T15:14:40.292Z,0.10
2018-06-29T15:17:07.828Z,0.10
2018-06-29T15:19:35.498Z,0.00
2018-06-29T15:22:03.043Z,0.10
2018-06-29T15:24:30.557Z,0.10
2018-06-29T15:26:58.072Z,0.00
2018-06-29T15:29:25.585Z,0.00
2018-06-29T15:31:53.280Z,0.20
2018-06-29T15:34:20.772Z,0.10
2018-06-29T15:36:48.293Z,0.10
2018-06-29T15:39:15.826Z,0.10
2018-06-29T15:41:43.391Z,0.00
2018-06-29T15:44:11.570Z,0.00
2018-06-29T15:46:39.115Z,0.10
2018-06-29T15:49:07.158Z,0.10
2018-06-29T15:51:34.728Z,0.10
2018-06-29T15:54:02.295Z,0.10
2018-06-29T15:56:29.848Z,0.00
2018-06-29T15:58:57.419Z,0.10
2018-06-29T16:01:25.144Z,0.00
2018-06-29T16:03:52.791Z,0.20
2018-06-29T16:06:20.385Z,0.10
2018-06-29T16:08:48.181Z,0.10
2018-06-29T16:11:15.768Z,0.03
2018-06-29T16:13:43.644Z,0.00
2018-06-29T16:16:12.300Z,0.00
2018-06-29T16:18:39.918Z,0.10
2018-06-29T16:21:07.530Z,0.10
2018-06-29T16:23:35.149Z,0.73
2018-06-29T16:26:02.743Z,0.10
2018-06-29T16:28:30.334Z,0.00
2018-06-29T16:30:57.914Z,0.00
2018-06-29T16:33:25.508Z,0.10
2018-06-29T16:35:53.067Z,0.00
2018-06-29T16:38:20.627Z,0.10
2018-06-29T16:40:48.172Z,0.00
2018-06-29T16:43:16.022Z,0.07
2018-06-29T16:45:43.555Z,0.10
2018-06-29T16:48:11.088Z,0.10
2018-06-29T16:50:38.661Z,0.20
2018-06-29T16:53:06.228Z,0.10
2018-06-29T16:55:33.838Z,0.10
2018-06-29T16:58:01.399Z,0.10
2018-06-29T17:00:28.911Z,0.20
2018-06-29T17:02:56.440Z,0.10
2018-06-29T17:05:24.229Z,0.03
2018-06-29T17:07:51.895Z,0.10
2018-06-29T17:10:19.443Z,0.10
2018-06-29T17:12:47.320Z,0.00
2018-06-29T17:15:14.911Z,0.00
2018-06-29T17:17:42.443Z,0.00
2018-06-29T17:20:09.999Z,0.00
2018-06-29T17:22:37.649Z,0.00
2018-06-29T17:25:05.661Z,0.17
2018-06-29T17:27:33.193Z,0.00
2018-06-29T17:30:00.724Z,0.00
2018-06-29T17:32:28.415Z,0.10
2018-06-29T17:34:55.919Z,0.10
2018-06-29T17:37:23.539Z,0.03
2018-06-29T17:39:51.111Z,0.00
2018-06-29T17:42:18.615Z,0.00
2018-06-29T17:44:46.108Z,0.03
2018-06-29T17:47:13.599Z,0.00
2018-06-29T17:49:41.219Z,0.00
2018-06-29T17:52:08.752Z,0.00
2018-06-29T17:54:36.264Z,0.10
2018-06-29T17:57:03.776Z,0.00
2018-06-29T17:59:31.266Z,0.00
2018-06-29T18:01:58.797Z,0.00
2018-06-29T18:04:26.500Z,0.00
2018-06-29T18:06:53.939Z,0.00
2018-06-29T18:09:21.444Z,0.00
2018-06-29T18:11:49.021Z,0.00
2018-06-29T18:14:16.527Z,0.00
2018-06-29T18:16:44.011Z,0.00
2018-06-29T18:19:11.663Z,0.00
2018-06-29T18:21:39.155Z,0.10
2018-06-29T18:24:06.652Z,0.00
2018-06-29T18:26:34.177Z,0.17
2018-06-29T18:29:01.655Z,0.10
2018-06-29T18:31:29.208Z,0.10
2018-06-29T18:33:56.704Z,0.10
2018-06-29T18:36:24.198Z,0.00
2018-06-29T18:38:51.782Z,0.03
2018-06-29T18:41:19.279Z,0.00
2018-06-29T18:43:46.775Z,0.10
2018-06-29T18:46:14.291Z,0.00
2018-06-29T18:48:41.806Z,0.10
2018-06-29T18:51:09.314Z,0.10
2018-06-29T18:53:36.921Z,0.10
2018-06-29T18:56:04.506Z,0.00
2018-06-29T18:58:32.006Z,0.10
2018-06-29T19:00:59.519Z,0.00
2018-06-29T19:03:27.070Z,0.00
2018-06-29T19:05:54.635Z,0.10
2018-06-29T19:08:22.155Z,0.07
2018-06-29T19:10:49.769Z,0.10
2018-06-29T19:13:17.307Z,0.10
2018-06-29T19:15:44.812Z,0.00
2018-06-29T19:18:12.334Z,0.00
2018-06-29T19:20:39.863Z,0.03
2018-06-29T19:23:07.377Z,0.10
2018-06-29T19:25:34.919Z,0.00
2018-06-29T19:28:02.434Z,0.10
2018-06-29T19:30:29.968Z,0.07
2018-06-29T19:32:57.499Z,0.07
2018-06-29T19:35:25.045Z,0.10
2018-06-29T19:37:52.588Z,0.10
2018-06-29T19:40:20.104Z,0.17
2018-06-29T19:42:48.509Z,0.00
2018-06-29T19:45:16.056Z,0.50
2018-06-29T19:47:43.572Z,0.10
2018-06-29T19:50:11.101Z,0.10
2018-06-29T19:52:38.639Z,0.00
2018-06-29T19:55:06.207Z,0.20
2018-06-29T19:57:33.713Z,0.20
2018-06-29T20:00:01.279Z,0.00
2018-06-29T20:02:28.775Z,0.00
2018-06-29T20:04:57.681Z,0.00
2018-06-29T20:07:25.711Z,0.10
2018-06-29T20:09:53.239Z,0.00
2018-06-29T20:12:20.795Z,0.10
2018-06-29T20:14:48.322Z,0.10
2018-06-29T20:17:15.885Z,0.00
2018-06-29T20:19:43.412Z,0.00
2018-06-29T20:22:10.931Z,0.00
2018-06-29T20:24:38.746Z,0.00
2018-06-29T20:27:06.307Z,0.20
2018-06-29T20:29:33.816Z,0.10
2018-06-29T20:32:01.319Z,0.00
2018-06-29T20:34:28.871Z,0.00
2018-06-29T20:36:56.370Z,0.00
2018-06-29T20:39:23.868Z,0.00
2018-06-29T20:41:51.403Z,0.00
2018-06-29T20:44:18.962Z,0.10
2018-06-29T20:46:46.462Z,0.10
2018-06-29T20:49:13.963Z,0.00
2018-06-29T20:51:41.474Z,0.00
2018-06-29T20:54:08.979Z,0.00
2018-06-29T20:56:36.538Z,0.10
2018-06-29T20:59:04.059Z,0.10
2018-06-29T21:01:31.546Z,0.10
2018-06-29T21:03:59.062Z,0.00
2018-06-29T21:06:26.567Z,0.20
2018-06-29T21:08:54.094Z,0.10
2018-06-29T21:11:21.641Z,0.07
2018-06-29T21:13:49.125Z,0.00
2018-06-29T21:16:16.653Z,0.00
2018-06-29T21:18:44.188Z,0.10
2018-06-29T21:21:11.723Z,0.20
2018-06-29T21:23:39.230Z,0.00
2018-06-29T21:26:06.721Z,0.17
2018-06-29T21:28:34.263Z,0.00
2018-06-29T21:31:01.795Z,0.10
2018-06-29T21:33:29.347Z,0.00
2018-06-29T21:35:56.867Z,0.13
2018-06-29T21:38:24.366Z,0.10
2018-06-29T21:40:52.046Z,0.10
2018-06-29T21:43:19.544Z,0.10
2018-06-29T21:45:47.072Z,0.00
2018-06-29T21:48:14.617Z,0.10
2018-06-29T21:50:42.155Z,0.00
2018-06-29T21:53:09.735Z,0.00
2018-06-29T21:55:37.267Z,0.10
2018-06-29T21:58:05.275Z,0.00
2018-06-29T22:00:38.373Z,0.10
2018-06-29T22:03:07.678Z,0.00
2018-06-29T22:05:35.731Z,0.10
2018-06-29T22:08:03.271Z,0.10
2018-06-29T22:10:30.799Z,0.20
2018-06-29T22:12:58.312Z,0.07
2018-06-29T22:15:25.841Z,0.20
2018-06-29T22:17:53.843Z,0.40
2018-06-29T22:20:21.995Z,0.10
2018-06-29T22:22:49.518Z,0.00
2018-06-29T22:25:17.247Z,0.10
2018-06-29T22:27:44.754Z,0.13
2018-06-29T22:30:12.258Z,0.10
2018-06-29T22:32:39.846Z,0.03
2018-06-29T22:35:07.345Z,0.00
2018-06-29T22:37:34.851Z,0.00
2018-06-29T22:40:02.353Z,0.00
2018-06-29T22:42:29.911Z,0.03
2018-06-29T22:44:57.419Z,0.27
2018-06-29T22:47:24.954Z,0.10
2018-06-29T22:49:52.442Z,0.07
2018-06-29T22:52:19.963Z,0.10
2018-06-29T22:54:48.384Z,0.13
2018-06-29T22:57:15.878Z,0.00
2018-06-29T22:59:43.495Z,0.10
2018-06-29T23:02:11.011Z,0.00
2018-06-29T23:04:38.553Z,0.10
2018-06-29T23:07:06.072Z,0.10
2018-06-29T23:09:33.568Z,0.10
2018-06-29T23:12:01.228Z,0.13
2018-06-29T23:14:28.730Z,0.10
2018-06-29T23:16:56.238Z,0.10
2018-06-29T23:19:23.791Z,0.10
2018-06-29T23:21:51.311Z,0.17
2018-06-29T23:24:18.803Z,0.10
2018-06-29T23:26:46.547Z,0.10
2018-06-29T23:29:14.069Z,0.10
2018-06-29T23:31:41.580Z,0.10
2018-06-29T23:34:09.254Z,0.10
2018-06-29T23:36:36.751Z,0.20
2018-06-29T23:39:06.536Z,0.10
2018-06-29T23:41:34.031Z,0.10
2018-06-29T23:44:01.609Z,0.10
2018-06-29T23:46:29.158Z,0.20
2018-06-29T23:48:56.667Z,0.10
2018-06-29T23:51:24.155Z,0.10
2018-06-29T23:53:51.690Z,0.10
2018-06-29T23:56:19.207Z,0.20
2018-06-29T23:58:46.741Z,0.07
